sensor_id;sensor_type;location;lat;lon;timestamp;pressure;altitude;pressure_sealevel;temperature;humidity
77227;BME280;66234;47.642;19.144;2024-02-26T00:00:26;99533.03;;;9.14;100.00
77227;BME280;66234;47.642;19.144;2024-02-26T00:03:28;99537.94;;;9.17;100.00
77227;BME280;66234;47.642;19.144;2024-02-26T00:06:31;99536.88;;;9.18;100.00
77227;BME280;66234;47.642;19.144;2024-02-26T00:09:34;99524.81;;;9.15;100.00
77227;BME280;66234;47.642;19.144;2024-02-26T00:12:39;99519.91;;;9.12;100.00
77227;BME280;66234;47.642;19.144;2024-02-26T00:15:42;99512.91;;;9.11;100.00
77227;BME280;66234;47.642;19.144;2024-02-26T00:18:45;99527.72;;;9.07;100.00
77227;BME280;66234;47.642;19.144;2024-02-26T00:21:52;99519.91;;;9.12;100.00
77227;BME280;66234;47.642;19.144;2024-02-26T00:24:58;99522.41;;;9.07;100.00
77227;BME280;66234;47.642;19.144;2024-02-26T00:28:00;99518.09;;;9.06;100.00
77227;BME280;66234;47.642;19.144;2024-02-26T00:31:03;99515.47;;;9.00;100.00
77227;BME280;66234;47.642;19.144;2024-02-26T00:34:06;99519.19;;;8.99;100.00
77227;BME280;66234;47.642;19.144;2024-02-26T00:37:09;99511.56;;;9.02;100.00
77227;BME280;66234;47.642;19.144;2024-02-26T00:40:13;99522.22;;;9.02;100.00
77227;BME280;66234;47.642;19.144;2024-02-26T00:43:16;99509.53;;;8.98;100.00
77227;BME280;66234;47.642;19.144;2024-02-26T00:46:20;99515.91;;;8.97;100.00
77227;BME280;66234;47.642;19.144;2024-02-26T00:49:23;99500.72;;;8.97;100.00
77227;BME280;66234;47.642;19.144;2024-02-26T00:52:26;99499.47;;;9.00;100.00
77227;BME280;66234;47.642;19.144;2024-02-26T00:55:29;99510.97;;;9.00;100.00
77227;BME280;66234;47.642;19.144;2024-02-26T00:58:31;99505.84;;;8.99;100.00
77227;BME280;66234;47.642;19.144;2024-02-26T01:01:35;99511.81;;;8.94;100.00
77227;BME280;66234;47.642;19.144;2024-02-26T01:04:37;99517.13;;;8.94;100.00
77227;BME280;66234;47.642;19.144;2024-02-26T01:07:40;99501.13;;;8.94;100.00
77227;BME280;66234;47.642;19.144;2024-02-26T01:10:43;99507.50;;;8.93;100.00
77227;BME280;66234;47.642;19.144;2024-02-26T01:13:45;99501.13;;;8.94;100.00
77227;BME280;66234;47.642;19.144;2024-02-26T01:16:48;99493.31;;;8.99;100.00
77227;BME280;66234;47.642;19.144;2024-02-26T01:19:50;99485.97;;;8.95;100.00
77227;BME280;66234;47.642;19.144;2024-02-26T01:22:53;99485.75;;;8.96;100.00
77227;BME280;66234;47.642;19.144;2024-02-26T01:25:56;99485.34;;;8.93;100.00
77227;BME280;66234;47.642;19.144;2024-02-26T01:28:58;99480.09;;;8.86;100.00
77227;BME280;66234;47.642;19.144;2024-02-26T01:32:01;99475.56;;;8.87;100.00
77227;BME280;66234;47.642;19.144;2024-02-26T01:35:03;99474.16;;;8.84;100.00
77227;BME280;66234;47.642;19.144;2024-02-26T01:38:07;99476.19;;;8.82;100.00
77227;BME280;66234;47.642;19.144;2024-02-26T01:41:10;99484.81;;;8.84;100.00
77227;BME280;66234;47.642;19.144;2024-02-26T01:44:12;99479.91;;;8.81;100.00
77227;BME280;66234;47.642;19.144;2024-02-26T01:47:16;99478.25;;;8.80;100.00
77227;BME280;66234;47.642;19.144;2024-02-26T01:50:19;99476.41;;;8.81;100.00
77227;BME280;66234;47.642;19.144;2024-02-26T01:53:22;99466.75;;;8.86;100.00
77227;BME280;66234;47.642;19.144;2024-02-26T01:56:26;99475.41;;;8.82;100.00
77227;BME280;66234;47.642;19.144;2024-02-26T01:59:34;99474.41;;;8.76;100.00
77227;BME280;66234;47.642;19.144;2024-02-26T02:02:38;99473.50;;;8.89;100.00
77227;BME280;66234;47.642;19.144;2024-02-26T02:05:41;99467.78;;;8.85;100.00
77227;BME280;66234;47.642;19.144;2024-02-26T02:08:46;99471.00;;;8.94;100.00
77227;BME280;66234;47.642;19.144;2024-02-26T02:11:48;99472.09;;;8.86;100.00
77227;BME280;66234;47.642;19.144;2024-02-26T02:14:51;99466.75;;;8.86;100.00
77227;BME280;66234;47.642;19.144;2024-02-26T02:17:54;99470.63;;;8.90;100.00
77227;BME280;66234;47.642;19.144;2024-02-26T02:20:57;99469.44;;;8.86;100.00
77227;BME280;66234;47.642;19.144;2024-02-26T02:24:02;99469.56;;;8.91;100.00
77227;BME280;66234;47.642;19.144;2024-02-26T02:27:05;99469.34;;;8.93;100.00
77227;BME280;66234;47.642;19.144;2024-02-26T02:30:09;99470.00;;;8.88;100.00
77227;BME280;66234;47.642;19.144;2024-02-26T02:33:12;99466.16;;;8.84;100.00
77227;BME280;66234;47.642;19.144;2024-02-26T02:36:15;99467.59;;;8.80;100.00
77227;BME280;66234;47.642;19.144;2024-02-26T02:39:18;99465.97;;;8.79;100.00
77227;BME280;66234;47.642;19.144;2024-02-26T02:42:20;99470.66;;;8.84;100.00
77227;BME280;66234;47.642;19.144;2024-02-26T02:45:23;99476.78;;;8.91;100.00
77227;BME280;66234;47.642;19.144;2024-02-26T02:48:25;99460.59;;;8.86;100.00
77227;BME280;66234;47.642;19.144;2024-02-26T02:51:28;99462.41;;;8.92;100.00
77227;BME280;66234;47.642;19.144;2024-02-26T02:54:31;99473.28;;;8.90;100.00
77227;BME280;66234;47.642;19.144;2024-02-26T02:57:34;99471.00;;;8.94;100.00
77227;BME280;66234;47.642;19.144;2024-02-26T03:00:36;99479.44;;;8.91;100.00
77227;BME280;66234;47.642;19.144;2024-02-26T03:03:39;99483.50;;;8.93;100.00
77227;BME280;66234;47.642;19.144;2024-02-26T03:06:42;99476.72;;;8.97;100.00
77227;BME280;66234;47.642;19.144;2024-02-26T03:09:44;99476.13;;;8.95;100.00
77227;BME280;66234;47.642;19.144;2024-02-26T03:12:47;99472.41;;;8.96;100.00
77227;BME280;66234;47.642;19.144;2024-02-26T03:15:50;99469.53;;;8.98;100.00
77227;BME280;66234;47.642;19.144;2024-02-26T03:18:53;99468.72;;;8.97;100.00
77227;BME280;66234;47.642;19.144;2024-02-26T03:21:55;99467.88;;;9.03;100.00
77227;BME280;66234;47.642;19.144;2024-02-26T03:24:58;99466.19;;;9.09;100.00
77227;BME280;66234;47.642;19.144;2024-02-26T03:28:01;99467.06;;;9.03;100.00
77227;BME280;66234;47.642;19.144;2024-02-26T03:31:03;99469.94;;;9.01;100.00
77227;BME280;66234;47.642;19.144;2024-02-26T03:34:06;99469.53;;;8.98;100.00
77227;BME280;66234;47.642;19.144;2024-02-26T03:37:09;99466.66;;;8.99;100.00
77227;BME280;66234;47.642;19.144;2024-02-26T03:40:13;99468.09;;;9.02;100.00
77227;BME280;66234;47.642;19.144;2024-02-26T03:43:17;99465.88;;;8.99;100.00
77227;BME280;66234;47.642;19.144;2024-02-26T03:46:20;99460.13;;;8.95;100.00
77227;BME280;66234;47.642;19.144;2024-02-26T03:49:22;99463.78;;;9.01;100.00
77227;BME280;66234;47.642;19.144;2024-02-26T03:52:25;99466.22;;;9.02;100.00
77227;BME280;66234;47.642;19.144;2024-02-26T03:55:28;99456.00;;;8.99;100.00
77227;BME280;66234;47.642;19.144;2024-02-26T03:58:30;99452.34;;;8.94;100.00
77227;BME280;66234;47.642;19.144;2024-02-26T04:01:33;99447.22;;;8.92;100.00
77227;BME280;66234;47.642;19.144;2024-02-26T04:04:36;99446.63;;;8.90;100.00
77227;BME280;66234;47.642;19.144;2024-02-26T04:07:39;99443.56;;;8.87;100.00
77227;BME280;66234;47.642;19.144;2024-02-26T04:10:41;99443.41;;;8.82;100.00
77227;BME280;66234;47.642;19.144;2024-02-26T04:13:44;99444.69;;;8.73;100.00
77227;BME280;66234;47.642;19.144;2024-02-26T04:16:53;99451.06;;;8.72;100.00
77227;BME280;66234;47.642;19.144;2024-02-26T04:19:56;99453.72;;;8.72;100.00
77227;BME280;66234;47.642;19.144;2024-02-26T04:22:59;99452.53;;;8.68;100.00
77227;BME280;66234;47.642;19.144;2024-02-26T04:26:02;99452.53;;;8.68;100.00
77227;BME280;66234;47.642;19.144;2024-02-26T04:29:06;99460.72;;;8.66;100.00
77227;BME280;66234;47.642;19.144;2024-02-26T04:32:09;99452.13;;;8.64;100.00
77227;BME280;66234;47.642;19.144;2024-02-26T04:35:11;99460.34;;;8.63;100.00
77227;BME280;66234;47.642;19.144;2024-02-26T04:38:14;99457.88;;;8.61;100.00
77227;BME280;66234;47.642;19.144;2024-02-26T04:41:16;99459.72;;;8.61;100.00
77227;BME280;66234;47.642;19.144;2024-02-26T04:44:19;99455.00;;;8.63;100.00
77227;BME280;66234;47.642;19.144;2024-02-26T04:47:22;99449.72;;;8.56;100.00
77227;BME280;66234;47.642;19.144;2024-02-26T04:50:25;99444.16;;;8.58;100.00
77227;BME280;66234;47.642;19.144;2024-02-26T04:53:27;99444.41;;;8.50;100.00
77227;BME280;66234;47.642;19.144;2024-02-26T04:56:30;99437.63;;;8.54;100.00
77227;BME280;66234;47.642;19.144;2024-02-26T04:59:32;99449.91;;;8.55;100.00
77227;BME280;66234;47.642;19.144;2024-02-26T05:02:35;99448.09;;;8.55;100.00
77227;BME280;66234;47.642;19.144;2024-02-26T05:05:40;99434.38;;;8.52;100.00
77227;BME280;66234;47.642;19.144;2024-02-26T05:08:43;99429.75;;;8.65;100.00
77227;BME280;66234;47.642;19.144;2024-02-26T05:11:46;99428.53;;;8.68;100.00
77227;BME280;66234;47.642;19.144;2024-02-26T05:14:49;99426.34;;;8.58;100.00
77227;BME280;66234;47.642;19.144;2024-02-26T05:17:52;99426.78;;;8.55;100.00
77227;BME280;66234;47.642;19.144;2024-02-26T05:20:55;99423.91;;;8.50;100.00
77227;BME280;66234;47.642;19.144;2024-02-26T05:23:58;99433.19;;;8.41;100.00
77227;BME280;66234;47.642;19.144;2024-02-26T05:27:00;99434.41;;;8.38;100.00
77227;BME280;66234;47.642;19.144;2024-02-26T05:30:03;99431.97;;;8.37;100.00
77227;BME280;66234;47.642;19.144;2024-02-26T05:33:10;99433.19;;;8.41;100.00
77227;BME280;66234;47.642;19.144;2024-02-26T05:36:20;99421.69;;;8.47;100.00
77227;BME280;66234;47.642;19.144;2024-02-26T05:39:24;99429.66;;;8.54;100.00
77227;BME280;66234;47.642;19.144;2024-02-26T05:42:27;99433.72;;;8.56;100.00
77227;BME280;66234;47.642;19.144;2024-02-26T05:45:30;99433.28;;;8.59;100.00
77227;BME280;66234;47.642;19.144;2024-02-26T05:48:32;99442.09;;;8.66;100.00
77227;BME280;66234;47.642;19.144;2024-02-26T05:51:35;99435.03;;;8.78;100.00
77227;BME280;66234;47.642;19.144;2024-02-26T05:54:38;99425.81;;;8.74;100.00
77227;BME280;66234;47.642;19.144;2024-02-26T05:57:40;99437.69;;;8.78;100.00
77227;BME280;66234;47.642;19.144;2024-02-26T06:00:43;99435.41;;;8.82;100.00
77227;BME280;66234;47.642;19.144;2024-02-26T06:03:46;99444.41;;;8.87;100.00
77227;BME280;66234;47.642;19.144;2024-02-26T06:06:49;99444.53;;;8.99;100.00
77227;BME280;66234;47.642;19.144;2024-02-26T06:09:52;99429.94;;;9.01;100.00
77227;BME280;66234;47.642;19.144;2024-02-26T06:12:55;99425.97;;;9.10;100.00
77227;BME280;66234;47.642;19.144;2024-02-26T06:15:57;99441.69;;;9.18;100.00
77227;BME280;66234;47.642;19.144;2024-02-26T06:19:00;99437.72;;;9.27;100.00
77227;BME280;66234;47.642;19.144;2024-02-26T06:22:07;99437.72;;;9.27;100.00
77227;BME280;66234;47.642;19.144;2024-02-26T06:25:09;99445.47;;;9.35;100.00
77227;BME280;66234;47.642;19.144;2024-02-26T06:28:12;99450.09;;;9.46;100.00
77227;BME280;66234;47.642;19.144;2024-02-26T06:31:15;99457.44;;;9.51;100.00
77227;BME280;66234;47.642;19.144;2024-02-26T06:34:19;99467.22;;;9.57;100.00
77227;BME280;66234;47.642;19.144;2024-02-26T06:37:22;99470.72;;;9.57;100.00
77227;BME280;66234;47.642;19.144;2024-02-26T06:40:25;99476.06;;;9.57;100.00
77227;BME280;66234;47.642;19.144;2024-02-26T06:43:28;99472.84;;;9.67;100.00
77227;BME280;66234;47.642;19.144;2024-02-26T06:46:30;99480.81;;;9.73;100.00
77227;BME280;66234;47.642;19.144;2024-02-26T06:49:33;99466.00;;;9.77;100.00
77227;BME280;66234;47.642;19.144;2024-02-26T06:52:36;99461.13;;;9.92;100.00
77227;BME280;66234;47.642;19.144;2024-02-26T06:55:38;99467.19;;;9.99;100.00
77227;BME280;66234;47.642;19.144;2024-02-26T06:58:43;99452.16;;;10.05;100.00
77227;BME280;66234;47.642;19.144;2024-02-26T07:01:47;99452.69;;;10.14;100.00
77227;BME280;66234;47.642;19.144;2024-02-26T07:04:50;99467.31;;;10.11;100.00
77227;BME280;66234;47.642;19.144;2024-02-26T07:07:53;99461.75;;;10.13;100.00
77227;BME280;66234;47.642;19.144;2024-02-26T07:10:56;99466.03;;;10.14;100.00
77227;BME280;66234;47.642;19.144;2024-02-26T07:13:58;99470.19;;;10.28;100.00
77227;BME280;66234;47.642;19.144;2024-02-26T07:17:01;99465.00;;;10.33;100.00
77227;BME280;66234;47.642;19.144;2024-02-26T07:20:04;99468.69;;;10.50;100.00
77227;BME280;66234;47.642;19.144;2024-02-26T07:23:11;99469.13;;;10.47;100.00
77227;BME280;66234;47.642;19.144;2024-02-26T07:26:15;99472.81;;;10.64;100.00
77227;BME280;66234;47.642;19.144;2024-02-26T07:29:20;99472.50;;;10.72;100.00
77227;BME280;66234;47.642;19.144;2024-02-26T07:32:27;99464.72;;;10.70;100.00
77227;BME280;66234;47.642;19.144;2024-02-26T07:35:30;99463.34;;;10.79;100.00
77227;BME280;66234;47.642;19.144;2024-02-26T07:38:36;99468.00;;;10.84;100.00
77227;BME280;66234;47.642;19.144;2024-02-26T07:41:45;99472.00;;;10.93;100.00
77227;BME280;66234;47.642;19.144;2024-02-26T07:44:51;99474.59;;;10.81;100.00
77227;BME280;66234;47.642;19.144;2024-02-26T07:47:55;99479.75;;;10.83;100.00
77227;BME280;66234;47.642;19.144;2024-02-26T07:50:57;99486.91;;;11.00;100.00
77227;BME280;66234;47.642;19.144;2024-02-26T07:54:02;99490.06;;;11.09;100.00
77227;BME280;66234;47.642;19.144;2024-02-26T07:57:05;99493.28;;;10.99;100.00
77227;BME280;66234;47.642;19.144;2024-02-26T08:00:09;99486.94;;;11.23;100.00
77227;BME280;66234;47.642;19.144;2024-02-26T08:03:12;99492.25;;;11.41;100.00
77227;BME280;66234;47.642;19.144;2024-02-26T08:06:18;99494.44;;;11.56;100.00
77227;BME280;66234;47.642;19.144;2024-02-26T08:09:22;99501.94;;;11.66;100.00
77227;BME280;66234;47.642;19.144;2024-02-26T08:12:25;99504.56;;;11.42;100.00
77227;BME280;66234;47.642;19.144;2024-02-26T08:15:34;99504.47;;;11.49;100.00
77227;BME280;66234;47.642;19.144;2024-02-26T08:18:39;99523.38;;;11.66;100.00
77227;BME280;66234;47.642;19.144;2024-02-26T08:21:43;99513.50;;;11.89;100.00
77227;BME280;66234;47.642;19.144;2024-02-26T08:24:45;99505.22;;;11.91;100.00
77227;BME280;66234;47.642;19.144;2024-02-26T08:27:48;99504.03;;;11.98;100.00
77227;BME280;66234;47.642;19.144;2024-02-26T08:30:51;99506.25;;;11.90;100.00
77227;BME280;66234;47.642;19.144;2024-02-26T08:33:53;99501.59;;;11.97;100.00
77227;BME280;66234;47.642;19.144;2024-02-26T08:37:01;99501.25;;;12.05;100.00
77227;BME280;66234;47.642;19.144;2024-02-26T08:40:06;99498.78;;;12.15;100.00
77227;BME280;66234;47.642;19.144;2024-02-26T08:43:12;99488.28;;;12.25;100.00
77227;BME280;66234;47.642;19.144;2024-02-26T08:46:15;99495.63;;;12.18;100.00
77227;BME280;66234;47.642;19.144;2024-02-26T08:49:18;99494.47;;;12.14;100.00
77227;BME280;66234;47.642;19.144;2024-02-26T08:52:22;99491.88;;;12.30;100.00
77227;BME280;66234;47.642;19.144;2024-02-26T08:55:28;99505.75;;;12.39;100.00
77227;BME280;66234;47.642;19.144;2024-02-26T08:58:35;99512.84;;;12.33;100.00
77227;BME280;66234;47.642;19.144;2024-02-26T09:01:39;99501.41;;;12.38;100.00
77227;BME280;66234;47.642;19.144;2024-02-26T09:04:41;99517.72;;;12.36;100.00
77227;BME280;66234;47.642;19.144;2024-02-26T09:07:44;99514.31;;;12.13;100.00
77227;BME280;66234;47.642;19.144;2024-02-26T09:10:50;99506.94;;;12.08;100.00
77227;BME280;66234;47.642;19.144;2024-02-26T09:13:54;99508.13;;;12.12;100.00
77227;BME280;66234;47.642;19.144;2024-02-26T09:16:56;99513.81;;;12.16;100.00
77227;BME280;66234;47.642;19.144;2024-02-26T09:19:59;99516.81;;;12.19;100.00
77227;BME280;66234;47.642;19.144;2024-02-26T09:23:05;99513.59;;;12.17;100.00
77227;BME280;66234;47.642;19.144;2024-02-26T09:26:10;99522.84;;;12.38;100.00
77227;BME280;66234;47.642;19.144;2024-02-26T09:29:15;99523.97;;;12.14;100.00
77227;BME280;66234;47.642;19.144;2024-02-26T09:32:21;99517.53;;;12.26;100.00
77227;BME280;66234;47.642;19.144;2024-02-26T09:35:24;99519.47;;;12.42;100.00
77227;BME280;66234;47.642;19.144;2024-02-26T09:38:27;99519.22;;;12.55;100.00
77227;BME280;66234;47.642;19.144;2024-02-26T09:41:30;99521.97;;;12.72;100.00
77227;BME280;66234;47.642;19.144;2024-02-26T09:44:34;99526.47;;;12.83;100.00
77227;BME280;66234;47.642;19.144;2024-02-26T09:47:41;99529.38;;;12.93;98.47
77227;BME280;66234;47.642;19.144;2024-02-26T09:50:45;99525.38;;;12.95;98.39
77227;BME280;66234;47.642;19.144;2024-02-26T09:53:51;99531.50;;;13.19;98.88
77227;BME280;66234;47.642;19.144;2024-02-26T09:57:03;99534.75;;;13.21;96.14
77227;BME280;66234;47.642;19.144;2024-02-26T10:00:21;99527.69;;;13.32;97.20
77227;BME280;66234;47.642;19.144;2024-02-26T10:03:32;99542.34;;;13.41;95.32
77227;BME280;66234;47.642;19.144;2024-02-26T10:06:38;99535.19;;;13.46;94.71
77227;BME280;66234;47.642;19.144;2024-02-26T10:09:42;99540.00;;;13.44;96.57
77227;BME280;66234;47.642;19.144;2024-02-26T10:12:48;99540.56;;;13.46;95.01
77227;BME280;66234;47.642;19.144;2024-02-26T10:15:51;99521.25;;;13.33;94.51
77227;BME280;66234;47.642;19.144;2024-02-26T10:18:53;99529.22;;;13.27;95.19
77227;BME280;66234;47.642;19.144;2024-02-26T10:22:03;99525.44;;;13.73;94.82
77227;BME280;66234;47.642;19.144;2024-02-26T10:25:07;99519.66;;;13.48;93.54
77227;BME280;66234;47.642;19.144;2024-02-26T10:28:10;99520.53;;;13.54;94.00
77227;BME280;66234;47.642;19.144;2024-02-26T10:31:16;99514.81;;;13.34;94.63
77227;BME280;66234;47.642;19.144;2024-02-26T10:34:19;99513.94;;;13.45;95.43
77227;BME280;66234;47.642;19.144;2024-02-26T10:37:23;99512.56;;;13.59;95.40
77227;BME280;66234;47.642;19.144;2024-02-26T10:40:31;99502.56;;;13.54;93.64
77227;BME280;66234;47.642;19.144;2024-02-26T10:43:33;99508.16;;;13.53;93.60
77227;BME280;66234;47.642;19.144;2024-02-26T10:46:42;99504.19;;;13.72;92.39
77227;BME280;66234;47.642;19.144;2024-02-26T10:49:47;99497.72;;;14.06;92.14
77227;BME280;66234;47.642;19.144;2024-02-26T10:52:52;99494.78;;;14.45;89.07
77227;BME280;66234;47.642;19.144;2024-02-26T10:56:03;99494.66;;;14.57;88.42
77227;BME280;66234;47.642;19.144;2024-02-26T10:59:07;99500.06;;;14.62;88.32
77227;BME280;66234;47.642;19.144;2024-02-26T11:02:13;99494.47;;;14.90;87.65
77227;BME280;66234;47.642;19.144;2024-02-26T11:05:17;99496.34;;;15.11;85.09
77227;BME280;66234;47.642;19.144;2024-02-26T11:08:21;99491.63;;;14.75;82.44
77227;BME280;66234;47.642;19.144;2024-02-26T11:11:29;99496.00;;;14.81;84.12
77227;BME280;66234;47.642;19.144;2024-02-26T11:14:32;99489.19;;;14.73;83.73
77227;BME280;66234;47.642;19.144;2024-02-26T11:17:35;99490.00;;;14.74;82.95
77227;BME280;66234;47.642;19.144;2024-02-26T11:20:40;99495.06;;;14.70;84.14
77227;BME280;66234;47.642;19.144;2024-02-26T11:23:45;99493.22;;;14.98;81.86
77227;BME280;66234;47.642;19.144;2024-02-26T11:26:51;99491.47;;;15.13;81.75
77227;BME280;66234;47.642;19.144;2024-02-26T11:30:02;99486.03;;;15.35;81.98
77227;BME280;66234;47.642;19.144;2024-02-26T11:33:08;99489.69;;;15.45;79.98
77227;BME280;66234;47.642;19.144;2024-02-26T11:36:12;99494.72;;;15.68;77.22
77227;BME280;66234;47.642;19.144;2024-02-26T11:39:16;99492.88;;;15.42;78.85
77227;BME280;66234;47.642;19.144;2024-02-26T11:42:23;99490.50;;;15.51;79.34
77227;BME280;66234;47.642;19.144;2024-02-26T11:45:47;99491.97;;;15.63;80.84
77227;BME280;66234;47.642;19.144;2024-02-26T11:49:00;99495.53;;;15.74;79.02
77227;BME280;66234;47.642;19.144;2024-02-26T11:52:08;99488.53;;;15.73;77.94
77227;BME280;66234;47.642;19.144;2024-02-26T11:55:11;99484.53;;;15.80;75.77
77227;BME280;66234;47.642;19.144;2024-02-26T11:58:14;99474.34;;;15.87;76.45
77227;BME280;66234;47.642;19.144;2024-02-26T12:04:44;99484.06;;;15.93;75.46
77227;BME280;66234;47.642;19.144;2024-02-26T12:07:53;99476.09;;;16.13;75.06
77227;BME280;66234;47.642;19.144;2024-02-26T12:10:56;99474.16;;;16.46;74.96
77227;BME280;66234;47.642;19.144;2024-02-26T12:13:58;99478.25;;;16.58;74.40
77227;BME280;66234;47.642;19.144;2024-02-26T12:17:01;99471.47;;;16.46;75.92
77227;BME280;66234;47.642;19.144;2024-02-26T12:20:11;99479.19;;;16.37;74.51
77227;BME280;66234;47.642;19.144;2024-02-26T12:23:16;99486.41;;;15.80;74.68
77227;BME280;66234;47.642;19.144;2024-02-26T12:26:22;99482.59;;;15.71;73.69
77227;BME280;66234;47.642;19.144;2024-02-26T12:29:26;99478.13;;;15.86;74.40
77227;BME280;66234;47.642;19.144;2024-02-26T12:32:29;99477.16;;;16.07;74.72
77227;BME280;66234;47.642;19.144;2024-02-26T12:35:33;99471.69;;;15.92;75.16
77227;BME280;66234;47.642;19.144;2024-02-26T12:38:37;99474.38;;;15.92;74.88
77227;BME280;66234;47.642;19.144;2024-02-26T12:41:40;99477.25;;;15.76;76.00
77227;BME280;66234;47.642;19.144;2024-02-26T12:44:46;99477.09;;;15.97;75.36
77227;BME280;66234;47.642;19.144;2024-02-26T12:47:49;99486.91;;;15.72;76.44
77227;BME280;66234;47.642;19.144;2024-02-26T12:50:54;99482.78;;;15.59;75.61
77227;BME280;66234;47.642;19.144;2024-02-26T12:53:56;99480.09;;;15.59;75.83
77227;BME280;66234;47.642;19.144;2024-02-26T12:57:03;99483.53;;;15.55;76.79
77227;BME280;66234;47.642;19.144;2024-02-26T13:00:07;99479.91;;;15.39;76.16
77227;BME280;66234;47.642;19.144;2024-02-26T13:03:12;99484.88;;;15.26;76.43
77227;BME280;66234;47.642;19.144;2024-02-26T13:06:17;99480.72;;;15.40;76.34
77227;BME280;66234;47.642;19.144;2024-02-26T13:09:20;99485.94;;;15.25;74.90
77227;BME280;66234;47.642;19.144;2024-02-26T13:12:28;99481.34;;;15.47;75.97
77227;BME280;66234;47.642;19.144;2024-02-26T13:15:32;99481.63;;;15.92;75.67
77227;BME280;66234;47.642;19.144;2024-02-26T13:18:37;99478.16;;;15.91;74.59
77227;BME280;66234;47.642;19.144;2024-02-26T13:21:40;99469.31;;;16.53;71.90
77227;BME280;66234;47.642;19.144;2024-02-26T13:24:53;99467.13;;;16.44;70.32
77227;BME280;66234;47.642;19.144;2024-02-26T13:28:13;99470.06;;;17.75;66.49
77227;BME280;66234;47.642;19.144;2024-02-26T13:31:17;99466.50;;;17.34;66.13
77227;BME280;66234;47.642;19.144;2024-02-26T13:37:30;99470.28;;;17.08;64.78
77227;BME280;66234;47.642;19.144;2024-02-26T13:40:35;99476.41;;;16.79;65.73
77227;BME280;66234;47.642;19.144;2024-02-26T13:43:37;99473.19;;;16.82;65.49
77227;BME280;66234;47.642;19.144;2024-02-26T13:46:40;99468.13;;;17.40;63.35
77227;BME280;66234;47.642;19.144;2024-02-26T13:49:43;99460.13;;;18.49;60.99
77227;BME280;66234;47.642;19.144;2024-02-26T13:52:48;99463.38;;;19.00;57.74
77227;BME280;66234;47.642;19.144;2024-02-26T13:55:55;99461.19;;;19.07;57.26
77227;BME280;66234;47.642;19.144;2024-02-26T13:59:01;99467.69;;;18.57;57.02
77227;BME280;66234;47.642;19.144;2024-02-26T14:02:03;99460.78;;;18.16;59.20
77227;BME280;66234;47.642;19.144;2024-02-26T14:05:06;99462.06;;;18.34;59.81
77227;BME280;66234;47.642;19.144;2024-02-26T14:08:09;99459.22;;;17.80;62.25
77227;BME280;66234;47.642;19.144;2024-02-26T14:11:12;99462.69;;;17.00;63.91
77227;BME280;66234;47.642;19.144;2024-02-26T14:14:15;99462.94;;;16.74;66.49
77227;BME280;66234;47.642;19.144;2024-02-26T14:17:17;99462.13;;;16.21;67.58
77227;BME280;66234;47.642;19.144;2024-02-26T14:20:21;99465.34;;;16.18;68.01
77227;BME280;66234;47.642;19.144;2024-02-26T14:23:23;99455.31;;;16.09;69.18
77227;BME280;66234;47.642;19.144;2024-02-26T14:26:26;99455.75;;;16.37;67.93
77227;BME280;66234;47.642;19.144;2024-02-26T14:29:29;99458.44;;;17.59;65.17
77227;BME280;66234;47.642;19.144;2024-02-26T14:32:31;99447.44;;;18.45;62.71
77227;BME280;66234;47.642;19.144;2024-02-26T14:35:39;99439.09;;;18.26;63.25
77227;BME280;66234;47.642;19.144;2024-02-26T14:38:44;99442.19;;;17.84;63.99
77227;BME280;66234;47.642;19.144;2024-02-26T14:41:46;99444.63;;;17.81;65.19
77227;BME280;66234;47.642;19.144;2024-02-26T14:44:49;99450.34;;;17.44;65.56
77227;BME280;66234;47.642;19.144;2024-02-26T14:47:53;99448.28;;;16.65;68.39
77227;BME280;66234;47.642;19.144;2024-02-26T14:50:55;99461.69;;;16.39;69.81
77227;BME280;66234;47.642;19.144;2024-02-26T14:54:01;99454.22;;;16.57;70.17
77227;BME280;66234;47.642;19.144;2024-02-26T14:57:05;99456.81;;;16.36;70.43
77227;BME280;66234;47.642;19.144;2024-02-26T15:00:09;99458.34;;;16.17;73.21
77227;BME280;66234;47.642;19.144;2024-02-26T15:03:12;99462.28;;;16.00;73.33
77227;BME280;66234;47.642;19.144;2024-02-26T15:06:15;99454.59;;;15.77;74.71
77227;BME280;66234;47.642;19.144;2024-02-26T15:09:18;99464.41;;;15.56;75.33
77227;BME280;66234;47.642;19.144;2024-02-26T15:12:21;99461.50;;;15.31;75.91
77227;BME280;66234;47.642;19.144;2024-02-26T15:15:33;99465.88;;;15.11;78.24
77227;BME280;66234;47.642;19.144;2024-02-26T15:18:39;99459.41;;;15.07;80.85
77227;BME280;66234;47.642;19.144;2024-02-26T15:21:46;99464.59;;;14.87;82.74
77227;BME280;66234;47.642;19.144;2024-02-26T15:24:50;99476.00;;;14.72;84.62
77227;BME280;66234;47.642;19.144;2024-02-26T15:27:52;99471.50;;;14.56;86.25
77227;BME280;66234;47.642;19.144;2024-02-26T15:30:55;99470.19;;;14.37;88.51
77227;BME280;66234;47.642;19.144;2024-02-26T15:33:59;99477.13;;;14.33;91.67
77227;BME280;66234;47.642;19.144;2024-02-26T15:37:02;99476.91;;;14.18;91.20
77227;BME280;66234;47.642;19.144;2024-02-26T15:40:08;99481.41;;;14.12;93.34
77227;BME280;66234;47.642;19.144;2024-02-26T15:43:16;99480.59;;;14.12;93.89
77227;BME280;66234;47.642;19.144;2024-02-26T15:46:20;99490.78;;;14.10;94.59
77227;BME280;66234;47.642;19.144;2024-02-26T15:49:22;99491.22;;;13.85;96.17
77227;BME280;66234;47.642;19.144;2024-02-26T15:52:26;99497.25;;;13.76;97.12
77227;BME280;66234;47.642;19.144;2024-02-26T15:55:28;99494.44;;;13.66;97.34
77227;BME280;66234;47.642;19.144;2024-02-26T15:58:32;99499.13;;;13.75;97.49
77227;BME280;66234;47.642;19.144;2024-02-26T16:01:34;99498.16;;;13.65;98.19
77227;BME280;66234;47.642;19.144;2024-02-26T16:04:37;99506.94;;;13.60;98.46